sensor_id;sensor_type;location;lat;lon;timestamp;temperature;humidity
63875;DHT22;51595;24.180;-110.296;2023-07-24T00:01:03;33.30;99.90
63875;DHT22;51595;24.180;-110.296;2023-07-24T00:03:29;32.80;99.90
63875;DHT22;51595;24.180;-110.296;2023-07-24T00:05:59;32.30;99.90
63875;DHT22;51595;24.180;-110.296;2023-07-24T00:08:26;32.10;99.90
63875;DHT22;51595;24.180;-110.296;2023-07-24T00:10:53;32.20;99.90
63875;DHT22;51595;24.180;-110.296;2023-07-24T00:13:19;32.10;99.90
63875;DHT22;51595;24.180;-110.296;2023-07-24T00:15:46;32.20;99.90
63875;DHT22;51595;24.180;-110.296;2023-07-24T00:18:13;32.40;99.90
63875;DHT22;51595;24.180;-110.296;2023-07-24T00:20:40;32.40;99.90
63875;DHT22;51595;24.180;-110.296;2023-07-24T00:23:06;32.50;99.90
63875;DHT22;51595;24.180;-110.296;2023-07-24T00:25:32;32.70;99.90
63875;DHT22;51595;24.180;-110.296;2023-07-24T00:27:59;32.80;99.90
63875;DHT22;51595;24.180;-110.296;2023-07-24T00:30:25;32.90;99.90
63875;DHT22;51595;24.180;-110.296;2023-07-24T00:32:55;32.90;99.90
63875;DHT22;51595;24.180;-110.296;2023-07-24T00:35:22;33.00;99.90
63875;DHT22;51595;24.180;-110.296;2023-07-24T00:37:48;33.10;99.90
63875;DHT22;51595;24.180;-110.296;2023-07-24T00:40:16;33.10;99.90
63875;DHT22;51595;24.180;-110.296;2023-07-24T00:42:47;33.10;99.90
63875;DHT22;51595;24.180;-110.296;2023-07-24T00:45:15;33.00;99.90
63875;DHT22;51595;24.180;-110.296;2023-07-24T00:47:43;33.20;99.90
63875;DHT22;51595;24.180;-110.296;2023-07-24T00:50:11;33.10;99.90
63875;DHT22;51595;24.180;-110.296;2023-07-24T00:52:39;33.10;99.90
63875;DHT22;51595;24.180;-110.296;2023-07-24T00:55:06;33.10;99.90
63875;DHT22;51595;24.180;-110.296;2023-07-24T00:57:35;33.10;99.90
63875;DHT22;51595;24.180;-110.296;2023-07-24T01:00:02;33.10;99.90
63875;DHT22;51595;24.180;-110.296;2023-07-24T01:02:33;33.00;99.90
63875;DHT22;51595;24.180;-110.296;2023-07-24T01:04:59;32.90;99.90
63875;DHT22;51595;24.180;-110.296;2023-07-24T01:07:26;32.70;99.90
63875;DHT22;51595;24.180;-110.296;2023-07-24T01:09:56;32.90;99.90
63875;DHT22;51595;24.180;-110.296;2023-07-24T01:12:36;32.90;99.90
63875;DHT22;51595;24.180;-110.296;2023-07-24T01:15:25;32.90;99.90
63875;DHT22;51595;24.180;-110.296;2023-07-24T01:18:08;32.80;99.90
63875;DHT22;51595;24.180;-110.296;2023-07-24T01:20:53;32.60;99.90
63875;DHT22;51595;24.180;-110.296;2023-07-24T01:23:36;32.50;99.90
63875;DHT22;51595;24.180;-110.296;2023-07-24T01:26:04;32.40;99.90
63875;DHT22;51595;24.180;-110.296;2023-07-24T01:28:32;32.40;99.90
63875;DHT22;51595;24.180;-110.296;2023-07-24T01:30:59;32.40;99.90
63875;DHT22;51595;24.180;-110.296;2023-07-24T01:33:28;32.40;99.90
63875;DHT22;51595;24.180;-110.296;2023-07-24T01:36:00;32.40;99.90
63875;DHT22;51595;24.180;-110.296;2023-07-24T01:38:31;32.30;99.90
63875;DHT22;51595;24.180;-110.296;2023-07-24T01:40:59;32.20;99.90
63875;DHT22;51595;24.180;-110.296;2023-07-24T01:43:27;32.00;99.90
63875;DHT22;51595;24.180;-110.296;2023-07-24T01:45:55;31.90;99.90
63875;DHT22;51595;24.180;-110.296;2023-07-24T01:48:23;31.80;99.90
63875;DHT22;51595;24.180;-110.296;2023-07-24T01:50:50;31.60;99.90
63875;DHT22;51595;24.180;-110.296;2023-07-24T01:53:18;31.40;99.90
63875;DHT22;51595;24.180;-110.296;2023-07-24T01:55:47;31.40;99.90
63875;DHT22;51595;24.180;-110.296;2023-07-24T01:58:17;31.20;99.90
63875;DHT22;51595;24.180;-110.296;2023-07-24T02:00:47;31.10;99.90
63875;DHT22;51595;24.180;-110.296;2023-07-24T02:03:14;31.10;99.90
63875;DHT22;51595;24.180;-110.296;2023-07-24T02:05:48;31.00;99.90
63875;DHT22;51595;24.180;-110.296;2023-07-24T02:08:21;31.00;99.90
63875;DHT22;51595;24.180;-110.296;2023-07-24T02:10:53;30.90;99.90
63875;DHT22;51595;24.180;-110.296;2023-07-24T02:13:23;30.90;99.90
63875;DHT22;51595;24.180;-110.296;2023-07-24T02:15:59;30.90;99.90
63875;DHT22;51595;24.180;-110.296;2023-07-24T02:18:28;30.80;99.90
63875;DHT22;51595;24.180;-110.296;2023-07-24T02:20:58;30.70;99.90
63875;DHT22;51595;24.180;-110.296;2023-07-24T02:23:27;30.60;99.90
63875;DHT22;51595;24.180;-110.296;2023-07-24T02:25:54;30.60;99.90
63875;DHT22;51595;24.180;-110.296;2023-07-24T02:28:26;30.60;99.90
63875;DHT22;51595;24.180;-110.296;2023-07-24T02:30:55;30.60;99.90
63875;DHT22;51595;24.180;-110.296;2023-07-24T02:33:26;30.60;99.90
63875;DHT22;51595;24.180;-110.296;2023-07-24T02:35:55;30.60;99.90
63875;DHT22;51595;24.180;-110.296;2023-07-24T02:38:22;30.60;99.90
63875;DHT22;51595;24.180;-110.296;2023-07-24T02:40:48;30.60;99.90
63875;DHT22;51595;24.180;-110.296;2023-07-24T02:43:15;30.50;99.90
63875;DHT22;51595;24.180;-110.296;2023-07-24T02:45:41;30.50;99.90
63875;DHT22;51595;24.180;-110.296;2023-07-24T02:48:13;30.50;99.90
63875;DHT22;51595;24.180;-110.296;2023-07-24T02:50:43;30.60;99.90
63875;DHT22;51595;24.180;-110.296;2023-07-24T02:53:12;30.50;99.90
63875;DHT22;51595;24.180;-110.296;2023-07-24T02:55:42;30.50;99.90
63875;DHT22;51595;24.180;-110.296;2023-07-24T02:58:14;30.50;99.90
63875;DHT22;51595;24.180;-110.296;2023-07-24T03:00:41;30.50;99.90
63875;DHT22;51595;24.180;-110.296;2023-07-24T03:03:16;30.40;99.90
63875;DHT22;51595;24.180;-110.296;2023-07-24T03:05:46;30.40;99.90
63875;DHT22;51595;24.180;-110.296;2023-07-24T03:08:12;30.40;99.90
63875;DHT22;51595;24.180;-110.296;2023-07-24T03:10:45;30.30;99.90
63875;DHT22;51595;24.180;-110.296;2023-07-24T03:13:14;30.30;99.90
63875;DHT22;51595;24.180;-110.296;2023-07-24T03:15:57;30.50;99.90
63875;DHT22;51595;24.180;-110.296;2023-07-24T03:18:24;30.50;99.90
63875;DHT22;51595;24.180;-110.296;2023-07-24T03:20:51;30.50;99.90
63875;DHT22;51595;24.180;-110.296;2023-07-24T03:23:19;30.30;99.90
63875;DHT22;51595;24.180;-110.296;2023-07-24T03:25:47;30.40;99.90
63875;DHT22;51595;24.180;-110.296;2023-07-24T03:28:16;30.50;99.90
63875;DHT22;51595;24.180;-110.296;2023-07-24T03:30:43;30.40;99.90
63875;DHT22;51595;24.180;-110.296;2023-07-24T03:33:14;30.40;99.90
63875;DHT22;51595;24.180;-110.296;2023-07-24T03:35:41;30.20;99.90
63875;DHT22;51595;24.180;-110.296;2023-07-24T03:38:09;30.10;99.90
63875;DHT22;51595;24.180;-110.296;2023-07-24T03:40:35;30.10;99.90
63875;DHT22;51595;24.180;-110.296;2023-07-24T03:43:03;30.10;99.90
63875;DHT22;51595;24.180;-110.296;2023-07-24T03:45:30;30.10;99.90
63875;DHT22;51595;24.180;-110.296;2023-07-24T03:48:00;30.10;99.90
63875;DHT22;51595;24.180;-110.296;2023-07-24T03:50:29;30.10;99.90
63875;DHT22;51595;24.180;-110.296;2023-07-24T03:52:59;30.00;99.90
63875;DHT22;51595;24.180;-110.296;2023-07-24T03:55:27;29.80;99.90
63875;DHT22;51595;24.180;-110.296;2023-07-24T03:57:55;29.80;99.90
63875;DHT22;51595;24.180;-110.296;2023-07-24T04:00:24;29.90;99.90
63875;DHT22;51595;24.180;-110.296;2023-07-24T04:02:51;29.90;99.90
63875;DHT22;51595;24.180;-110.296;2023-07-24T04:05:19;30.00;99.90
63875;DHT22;51595;24.180;-110.296;2023-07-24T04:07:46;30.10;99.90
63875;DHT22;51595;24.180;-110.296;2023-07-24T04:10:14;30.00;99.90
63875;DHT22;51595;24.180;-110.296;2023-07-24T04:12:40;30.00;99.90
63875;DHT22;51595;24.180;-110.296;2023-07-24T04:15:10;30.00;99.90
63875;DHT22;51595;24.180;-110.296;2023-07-24T04:17:36;30.10;99.90
63875;DHT22;51595;24.180;-110.296;2023-07-24T04:20:05;30.10;99.90
63875;DHT22;51595;24.180;-110.296;2023-07-24T04:22:33;30.10;99.90
63875;DHT22;51595;24.180;-110.296;2023-07-24T04:25:01;30.10;99.90
63875;DHT22;51595;24.180;-110.296;2023-07-24T04:27:28;30.10;99.90
63875;DHT22;51595;24.180;-110.296;2023-07-24T04:29:54;29.90;99.90
63875;DHT22;51595;24.180;-110.296;2023-07-24T04:32:21;29.90;99.90
63875;DHT22;51595;24.180;-110.296;2023-07-24T04:34:48;29.90;99.90
63875;DHT22;51595;24.180;-110.296;2023-07-24T04:37:14;30.00;99.90
63875;DHT22;51595;24.180;-110.296;2023-07-24T04:39:43;30.10;99.90
63875;DHT22;51595;24.180;-110.296;2023-07-24T04:42:09;29.90;99.90
63875;DHT22;51595;24.180;-110.296;2023-07-24T04:44:47;29.90;99.90
63875;DHT22;51595;24.180;-110.296;2023-07-24T04:47:16;30.00;99.90
63875;DHT22;51595;24.180;-110.296;2023-07-24T04:49:42;29.80;99.90
63875;DHT22;51595;24.180;-110.296;2023-07-24T04:52:13;30.00;99.90
63875;DHT22;51595;24.180;-110.296;2023-07-24T04:54:43;30.00;99.90
63875;DHT22;51595;24.180;-110.296;2023-07-24T04:57:10;29.90;99.90
63875;DHT22;51595;24.180;-110.296;2023-07-24T04:59:42;29.80;99.90
63875;DHT22;51595;24.180;-110.296;2023-07-24T05:02:11;29.80;99.90
63875;DHT22;51595;24.180;-110.296;2023-07-24T05:04:38;29.80;99.90
63875;DHT22;51595;24.180;-110.296;2023-07-24T05:07:04;29.90;99.90
63875;DHT22;51595;24.180;-110.296;2023-07-24T05:09:31;30.00;99.90
63875;DHT22;51595;24.180;-110.296;2023-07-24T05:12:00;30.00;99.90
63875;DHT22;51595;24.180;-110.296;2023-07-24T05:14:50;29.90;99.90
63875;DHT22;51595;24.180;-110.296;2023-07-24T05:17:18;29.80;99.90
63875;DHT22;51595;24.180;-110.296;2023-07-24T05:19:44;29.90;99.90
63875;DHT22;51595;24.180;-110.296;2023-07-24T05:22:13;29.80;99.90
63875;DHT22;51595;24.180;-110.296;2023-07-24T05:24:47;29.90;99.90
63875;DHT22;51595;24.180;-110.296;2023-07-24T05:27:22;30.10;99.90
63875;DHT22;51595;24.180;-110.296;2023-07-24T05:29:58;30.20;99.90
63875;DHT22;51595;24.180;-110.296;2023-07-24T05:32:25;30.30;99.90
63875;DHT22;51595;24.180;-110.296;2023-07-24T05:34:57;30.20;99.90
63875;DHT22;51595;24.180;-110.296;2023-07-24T05:37:24;30.30;99.90
63875;DHT22;51595;24.180;-110.296;2023-07-24T05:39:51;30.20;99.90
63875;DHT22;51595;24.180;-110.296;2023-07-24T05:42:17;30.20;99.90
63875;DHT22;51595;24.180;-110.296;2023-07-24T05:44:47;30.10;99.90
63875;DHT22;51595;24.180;-110.296;2023-07-24T05:47:14;29.90;99.90
63875;DHT22;51595;24.180;-110.296;2023-07-24T05:49:53;29.70;99.90
63875;DHT22;51595;24.180;-110.296;2023-07-24T05:52:20;29.70;99.90
63875;DHT22;51595;24.180;-110.296;2023-07-24T05:54:52;29.70;99.90
63875;DHT22;51595;24.180;-110.296;2023-07-24T05:57:20;29.80;99.90
63875;DHT22;51595;24.180;-110.296;2023-07-24T05:59:57;29.70;99.90
63875;DHT22;51595;24.180;-110.296;2023-07-24T06:02:26;29.70;99.90
63875;DHT22;51595;24.180;-110.296;2023-07-24T06:04:53;29.60;99.90
63875;DHT22;51595;24.180;-110.296;2023-07-24T06:07:19;29.60;99.90
63875;DHT22;51595;24.180;-110.296;2023-07-24T06:09:50;29.70;99.90
63875;DHT22;51595;24.180;-110.296;2023-07-24T06:12:17;29.80;99.90
63875;DHT22;51595;24.180;-110.296;2023-07-24T06:14:44;29.90;99.90
63875;DHT22;51595;24.180;-110.296;2023-07-24T06:17:11;29.90;99.90
63875;DHT22;51595;24.180;-110.296;2023-07-24T06:19:37;29.90;99.90
63875;DHT22;51595;24.180;-110.296;2023-07-24T06:22:04;29.90;99.90
63875;DHT22;51595;24.180;-110.296;2023-07-24T06:24:30;29.90;99.90
63875;DHT22;51595;24.180;-110.296;2023-07-24T06:26:59;30.00;99.90
63875;DHT22;51595;24.180;-110.296;2023-07-24T06:29:25;29.80;99.90
63875;DHT22;51595;24.180;-110.296;2023-07-24T06:31:53;29.80;99.90
63875;DHT22;51595;24.180;-110.296;2023-07-24T06:34:20;29.70;99.90
63875;DHT22;51595;24.180;-110.296;2023-07-24T06:36:47;29.70;99.90
63875;DHT22;51595;24.180;-110.296;2023-07-24T06:39:18;29.80;99.90
63875;DHT22;51595;24.180;-110.296;2023-07-24T06:41:46;29.80;99.90
63875;DHT22;51595;24.180;-110.296;2023-07-24T06:44:14;29.90;99.90
63875;DHT22;51595;24.180;-110.296;2023-07-24T06:46:41;30.10;99.90
63875;DHT22;51595;24.180;-110.296;2023-07-24T06:49:07;30.10;99.90
63875;DHT22;51595;24.180;-110.296;2023-07-24T06:51:34;30.10;99.90
63875;DHT22;51595;24.180;-110.296;2023-07-24T06:54:02;30.20;99.90
63875;DHT22;51595;24.180;-110.296;2023-07-24T06:56:28;30.20;99.90
63875;DHT22;51595;24.180;-110.296;2023-07-24T06:58:59;30.20;99.90
63875;DHT22;51595;24.180;-110.296;2023-07-24T07:01:25;30.20;99.90
63875;DHT22;51595;24.180;-110.296;2023-07-24T07:03:53;30.10;99.90
63875;DHT22;51595;24.180;-110.296;2023-07-24T07:06:21;30.10;99.90
63875;DHT22;51595;24.180;-110.296;2023-07-24T07:08:48;30.00;99.90
63875;DHT22;51595;24.180;-110.296;2023-07-24T07:11:15;29.90;99.90
63875;DHT22;51595;24.180;-110.296;2023-07-24T07:13:43;29.80;99.90
63875;DHT22;51595;24.180;-110.296;2023-07-24T07:16:11;29.80;99.90
63875;DHT22;51595;24.180;-110.296;2023-07-24T07:18:38;29.80;99.90
63875;DHT22;51595;24.180;-110.296;2023-07-24T07:21:06;29.90;99.90
63875;DHT22;51595;24.180;-110.296;2023-07-24T07:23:32;30.10;99.90
63875;DHT22;51595;24.180;-110.296;2023-07-24T07:26:00;30.00;99.90
63875;DHT22;51595;24.180;-110.296;2023-07-24T07:28:28;30.00;99.90
63875;DHT22;51595;24.180;-110.296;2023-07-24T07:30:57;29.90;99.90
63875;DHT22;51595;24.180;-110.296;2023-07-24T07:33:23;29.80;99.90
63875;DHT22;51595;24.180;-110.296;2023-07-24T07:35:52;29.70;99.90
63875;DHT22;51595;24.180;-110.296;2023-07-24T07:38:19;29.60;99.90
63875;DHT22;51595;24.180;-110.296;2023-07-24T07:40:48;29.70;99.90
63875;DHT22;51595;24.180;-110.296;2023-07-24T07:43:15;29.70;99.90
63875;DHT22;51595;24.180;-110.296;2023-07-24T07:45:47;29.70;99.90
63875;DHT22;51595;24.180;-110.296;2023-07-24T07:48:16;29.70;99.90
63875;DHT22;51595;24.180;-110.296;2023-07-24T07:50:53;29.60;99.90
63875;DHT22;51595;24.180;-110.296;2023-07-24T07:53:21;29.50;99.90
63875;DHT22;51595;24.180;-110.296;2023-07-24T07:55:56;29.40;99.90
63875;DHT22;51595;24.180;-110.296;2023-07-24T07:58:23;29.40;99.90
63875;DHT22;51595;24.180;-110.296;2023-07-24T08:00:51;29.30;99.90
63875;DHT22;51595;24.180;-110.296;2023-07-24T08:03:19;29.40;99.90
63875;DHT22;51595;24.180;-110.296;2023-07-24T08:05:46;29.40;99.90
63875;DHT22;51595;24.180;-110.296;2023-07-24T08:08:13;29.50;99.90
63875;DHT22;51595;24.180;-110.296;2023-07-24T08:10:40;29.50;99.90
63875;DHT22;51595;24.180;-110.296;2023-07-24T08:13:08;29.50;99.90
63875;DHT22;51595;24.180;-110.296;2023-07-24T08:15:38;29.50;99.90
63875;DHT22;51595;24.180;-110.296;2023-07-24T08:18:06;29.40;99.90
63875;DHT22;51595;24.180;-110.296;2023-07-24T08:20:35;29.30;99.90
63875;DHT22;51595;24.180;-110.296;2023-07-24T08:23:03;29.30;99.90
63875;DHT22;51595;24.180;-110.296;2023-07-24T08:25:29;29.30;99.90
63875;DHT22;51595;24.180;-110.296;2023-07-24T08:27:56;29.30;99.90
63875;DHT22;51595;24.180;-110.296;2023-07-24T08:30:22;29.30;99.90
63875;DHT22;51595;24.180;-110.296;2023-07-24T08:32:49;29.30;99.90
63875;DHT22;51595;24.180;-110.296;2023-07-24T08:35:20;29.20;99.90
63875;DHT22;51595;24.180;-110.296;2023-07-24T08:37:48;29.20;99.90
63875;DHT22;51595;24.180;-110.296;2023-07-24T08:40:15;29.00;99.90
63875;DHT22;51595;24.180;-110.296;2023-07-24T08:42:43;29.10;99.90
63875;DHT22;51595;24.180;-110.296;2023-07-24T08:45:13;29.10;99.90
63875;DHT22;51595;24.180;-110.296;2023-07-24T08:47:46;29.20;99.90
63875;DHT22;51595;24.180;-110.296;2023-07-24T08:50:13;29.20;99.90
63875;DHT22;51595;24.180;-110.296;2023-07-24T08:52:41;29.20;99.90
63875;DHT22;51595;24.180;-110.296;2023-07-24T08:55:12;29.20;99.90
63875;DHT22;51595;24.180;-110.296;2023-07-24T08:57:39;29.30;99.90
63875;DHT22;51595;24.180;-110.296;2023-07-24T09:00:07;29.20;99.90
63875;DHT22;51595;24.180;-110.296;2023-07-24T09:02:34;29.30;99.90
63875;DHT22;51595;24.180;-110.296;2023-07-24T09:05:01;29.20;99.90
63875;DHT22;51595;24.180;-110.296;2023-07-24T09:07:30;29.20;99.90
63875;DHT22;51595;24.180;-110.296;2023-07-24T09:09:57;29.20;99.90
63875;DHT22;51595;24.180;-110.296;2023-07-24T09:12:23;29.20;99.90
63875;DHT22;51595;24.180;-110.296;2023-07-24T09:15:01;29.20;99.90
63875;DHT22;51595;24.180;-110.296;2023-07-24T09:17:29;29.20;99.90
63875;DHT22;51595;24.180;-110.296;2023-07-24T09:19:58;29.10;99.90
63875;DHT22;51595;24.180;-110.296;2023-07-24T09:22:24;29.10;99.90
63875;DHT22;51595;24.180;-110.296;2023-07-24T09:24:55;29.10;99.90
63875;DHT22;51595;24.180;-110.296;2023-07-24T09:27:25;29.00;99.90
63875;DHT22;51595;24.180;-110.296;2023-07-24T09:29:52;29.10;99.90
63875;DHT22;51595;24.180;-110.296;2023-07-24T09:32:24;29.20;99.90
63875;DHT22;51595;24.180;-110.296;2023-07-24T09:34:51;29.20;99.90
63875;DHT22;51595;24.180;-110.296;2023-07-24T09:39:54;29.20;99.90
63875;DHT22;51595;24.180;-110.296;2023-07-24T09:42:31;29.10;99.90
63875;DHT22;51595;24.180;-110.296;2023-07-24T09:44:58;29.20;99.90
63875;DHT22;51595;24.180;-110.296;2023-07-24T09:47:25;29.10;99.90
63875;DHT22;51595;24.180;-110.296;2023-07-24T09:49:52;29.20;99.90
63875;DHT22;51595;24.180;-110.296;2023-07-24T09:52:20;29.20;99.90
63875;DHT22;51595;24.180;-110.296;2023-07-24T09:55:06;29.20;99.90
63875;DHT22;51595;24.180;-110.296;2023-07-24T09:57:35;29.20;99.90
63875;DHT22;51595;24.180;-110.296;2023-07-24T10:00:02;29.20;99.90
63875;DHT22;51595;24.180;-110.296;2023-07-24T10:02:30;29.20;99.90
63875;DHT22;51595;24.180;-110.296;2023-07-24T10:04:57;29.10;99.90
63875;DHT22;51595;24.180;-110.296;2023-07-24T10:07:23;29.20;99.90
63875;DHT22;51595;24.180;-110.296;2023-07-24T10:09:51;29.30;99.90
63875;DHT22;51595;24.180;-110.296;2023-07-24T10:12:21;29.30;99.90
63875;DHT22;51595;24.180;-110.296;2023-07-24T10:14:49;29.30;99.90
63875;DHT22;51595;24.180;-110.296;2023-07-24T10:17:37;29.20;99.90
63875;DHT22;51595;24.180;-110.296;2023-07-24T10:20:08;29.40;99.90
63875;DHT22;51595;24.180;-110.296;2023-07-24T10:22:36;29.40;99.90
63875;DHT22;51595;24.180;-110.296;2023-07-24T10:25:08;29.40;99.90
63875;DHT22;51595;24.180;-110.296;2023-07-24T10:27:45;29.30;99.90
63875;DHT22;51595;24.180;-110.296;2023-07-24T10:30:12;29.40;99.90
63875;DHT22;51595;24.180;-110.296;2023-07-24T10:32:46;29.50;99.90
63875;DHT22;51595;24.180;-110.296;2023-07-24T10:35:13;29.60;99.90
63875;DHT22;51595;24.180;-110.296;2023-07-24T10:37:39;29.50;99.90
63875;DHT22;51595;24.180;-110.296;2023-07-24T10:40:07;29.50;99.90
63875;DHT22;51595;24.180;-110.296;2023-07-24T10:42:46;29.50;99.90
63875;DHT22;51595;24.180;-110.296;2023-07-24T10:45:12;29.60;99.90
63875;DHT22;51595;24.180;-110.296;2023-07-24T10:47:39;29.60;99.90
63875;DHT22;51595;24.180;-110.296;2023-07-24T10:50:07;29.60;99.90
63875;DHT22;51595;24.180;-110.296;2023-07-24T10:52:34;29.70;99.90
63875;DHT22;51595;24.180;-110.296;2023-07-24T10:55:01;29.80;99.90
63875;DHT22;51595;24.180;-110.296;2023-07-24T10:57:29;29.80;99.90
63875;DHT22;51595;24.180;-110.296;2023-07-24T10:59:56;29.60;99.90
63875;DHT22;51595;24.180;-110.296;2023-07-24T11:02:23;29.60;99.90
63875;DHT22;51595;24.180;-110.296;2023-07-24T11:04:51;29.50;99.90
63875;DHT22;51595;24.180;-110.296;2023-07-24T11:07:18;29.40;99.90
63875;DHT22;51595;24.180;-110.296;2023-07-24T11:09:45;29.40;99.90
63875;DHT22;51595;24.180;-110.296;2023-07-24T11:12:13;29.40;99.90
63875;DHT22;51595;24.180;-110.296;2023-07-24T11:14:50;29.50;99.90
63875;DHT22;51595;24.180;-110.296;2023-07-24T11:17:20;29.40;99.90
63875;DHT22;51595;24.180;-110.296;2023-07-24T11:19:48;29.40;99.90
63875;DHT22;51595;24.180;-110.296;2023-07-24T11:22:15;29.40;99.90
63875;DHT22;51595;24.180;-110.296;2023-07-24T11:24:48;29.40;99.90
63875;DHT22;51595;24.180;-110.296;2023-07-24T11:27:16;29.60;99.90
63875;DHT22;51595;24.180;-110.296;2023-07-24T11:29:49;29.60;99.90
63875;DHT22;51595;24.180;-110.296;2023-07-24T11:32:21;29.60;99.90
63875;DHT22;51595;24.180;-110.296;2023-07-24T11:34:49;29.60;99.90
63875;DHT22;51595;24.180;-110.296;2023-07-24T11:37:16;29.50;99.90
63875;DHT22;51595;24.180;-110.296;2023-07-24T11:39:59;29.50;99.90
63875;DHT22;51595;24.180;-110.296;2023-07-24T11:42:30;29.60;99.90
63875;DHT22;51595;24.180;-110.296;2023-07-24T11:45:00;29.60;99.90
63875;DHT22;51595;24.180;-110.296;2023-07-24T11:47:27;29.50;99.90
63875;DHT22;51595;24.180;-110.296;2023-07-24T11:50:00;29.50;99.90
63875;DHT22;51595;24.180;-110.296;2023-07-24T11:52:57;29.60;99.90
63875;DHT22;51595;24.180;-110.296;2023-07-24T11:55:31;29.70;99.90
63875;DHT22;51595;24.180;-110.296;2023-07-24T11:57:59;29.70;99.90
63875;DHT22;51595;24.180;-110.296;2023-07-24T12:00:27;29.70;99.90
63875;DHT22;51595;24.180;-110.296;2023-07-24T12:03:00;29.90;99.90
63875;DHT22;51595;24.180;-110.296;2023-07-24T12:05:26;30.00;99.90
63875;DHT22;51595;24.180;-110.296;2023-07-24T12:07:54;29.90;99.90
63875;DHT22;51595;24.180;-110.296;2023-07-24T12:10:28;29.90;99.90
63875;DHT22;51595;24.180;-110.296;2023-07-24T12:12:58;29.70;99.90
63875;DHT22;51595;24.180;-110.296;2023-07-24T12:15:25;29.60;99.90
63875;DHT22;51595;24.180;-110.296;2023-07-24T12:17:53;29.50;99.90
63875;DHT22;51595;24.180;-110.296;2023-07-24T12:20:19;29.10;99.90
63875;DHT22;51595;24.180;-110.296;2023-07-24T12:22:47;28.80;99.90
63875;DHT22;51595;24.180;-110.296;2023-07-24T12:25:13;28.60;99.90
63875;DHT22;51595;24.180;-110.296;2023-07-24T12:27:41;28.60;99.90
63875;DHT22;51595;24.180;-110.296;2023-07-24T12:30:08;28.70;99.90
63875;DHT22;51595;24.180;-110.296;2023-07-24T12:32:35;28.90;99.90
63875;DHT22;51595;24.180;-110.296;2023-07-24T12:35:01;28.90;99.90
63875;DHT22;51595;24.180;-110.296;2023-07-24T12:37:28;29.10;99.90
63875;DHT22;51595;24.180;-110.296;2023-07-24T12:39:58;29.30;99.90
63875;DHT22;51595;24.180;-110.296;2023-07-24T12:42:28;29.00;99.90
63875;DHT22;51595;24.180;-110.296;2023-07-24T12:44:54;28.60;99.90
63875;DHT22;51595;24.180;-110.296;2023-07-24T12:47:21;28.30;99.90
63875;DHT22;51595;24.180;-110.296;2023-07-24T12:49:47;28.00;99.90
63875;DHT22;51595;24.180;-110.296;2023-07-24T12:52:13;27.90;99.90
63875;DHT22;51595;24.180;-110.296;2023-07-24T12:54:40;27.80;99.90
63875;DHT22;51595;24.180;-110.296;2023-07-24T12:57:06;27.80;99.90
63875;DHT22;51595;24.180;-110.296;2023-07-24T12:59:34;28.10;99.90
63875;DHT22;51595;24.180;-110.296;2023-07-24T13:02:00;28.30;99.90
63875;DHT22;51595;24.180;-110.296;2023-07-24T13:04:27;28.50;99.90
63875;DHT22;51595;24.180;-110.296;2023-07-24T13:06:53;28.50;99.90
63875;DHT22;51595;24.180;-110.296;2023-07-24T13:09:20;28.70;99.90
63875;DHT22;51595;24.180;-110.296;2023-07-24T13:11:47;29.00;99.90
63875;DHT22;51595;24.180;-110.296;2023-07-24T13:14:17;29.20;99.90
63875;DHT22;51595;24.180;-110.296;2023-07-24T13:16:44;29.30;99.90
63875;DHT22;51595;24.180;-110.296;2023-07-24T13:19:12;29.70;99.90
63875;DHT22;51595;24.180;-110.296;2023-07-24T13:21:40;29.60;99.90
63875;DHT22;51595;24.180;-110.296;2023-07-24T13:24:07;29.70;99.90
63875;DHT22;51595;24.180;-110.296;2023-07-24T13:26:33;29.60;99.90
63875;DHT22;51595;24.180;-110.296;2023-07-24T13:29:00;29.70;99.90
63875;DHT22;51595;24.180;-110.296;2023-07-24T13:31:26;29.90;99.90
63875;DHT22;51595;24.180;-110.296;2023-07-24T13:33:54;30.10;99.90
63875;DHT22;51595;24.180;-110.296;2023-07-24T13:36:21;30.00;99.90
63875;DHT22;51595;24.180;-110.296;2023-07-24T13:38:47;29.90;99.90
63875;DHT22;51595;24.180;-110.296;2023-07-24T13:41:15;29.90;99.90
63875;DHT22;51595;24.180;-110.296;2023-07-24T13:43:42;29.90;99.90
63875;DHT22;51595;24.180;-110.296;2023-07-24T13:46:08;29.90;99.90
63875;DHT22;51595;24.180;-110.296;2023-07-24T13:48:35;30.00;99.90
63875;DHT22;51595;24.180;-110.296;2023-07-24T13:51:01;30.00;99.90
63875;DHT22;51595;24.180;-110.296;2023-07-24T13:53:27;29.90;99.90
63875;DHT22;51595;24.180;-110.296;2023-07-24T13:55:56;29.80;99.90
63875;DHT22;51595;24.180;-110.296;2023-07-24T13:58:22;29.80;99.90
63875;DHT22;51595;24.180;-110.296;2023-07-24T14:00:49;29.80;99.90
63875;DHT22;51595;24.180;-110.296;2023-07-24T14:03:18;29.80;99.90
63875;DHT22;51595;24.180;-110.296;2023-07-24T14:05:44;29.90;99.90
63875;DHT22;51595;24.180;-110.296;2023-07-24T14:08:11;30.00;99.90
63875;DHT22;51595;24.180;-110.296;2023-07-24T14:10:38;30.30;99.90
63875;DHT22;51595;24.180;-110.296;2023-07-24T14:13:04;30.50;99.90
63875;DHT22;51595;24.180;-110.296;2023-07-24T14:15:30;30.40;99.90
63875;DHT22;51595;24.180;-110.296;2023-07-24T14:17:57;30.50;99.90
63875;DHT22;51595;24.180;-110.296;2023-07-24T14:20:23;30.60;99.90
63875;DHT22;51595;24.180;-110.296;2023-07-24T14:22:50;30.80;99.90
63875;DHT22;51595;24.180;-110.296;2023-07-24T14:25:17;30.90;99.90
63875;DHT22;51595;24.180;-110.296;2023-07-24T14:27:44;31.30;99.90
63875;DHT22;51595;24.180;-110.296;2023-07-24T14:30:12;31.60;99.90
63875;DHT22;51595;24.180;-110.296;2023-07-24T14:32:38;31.50;99.90
63875;DHT22;51595;24.180;-110.296;2023-07-24T14:35:05;31.50;99.90
63875;DHT22;51595;24.180;-110.296;2023-07-24T14:37:33;31.60;99.90
63875;DHT22;51595;24.180;-110.296;2023-07-24T14:40:00;31.60;99.90
63875;DHT22;51595;24.180;-110.296;2023-07-24T14:42:28;32.00;99.90
63875;DHT22;51595;24.180;-110.296;2023-07-24T14:44:55;32.00;99.90
63875;DHT22;51595;24.180;-110.296;2023-07-24T14:47:21;32.00;99.90
63875;DHT22;51595;24.180;-110.296;2023-07-24T14:49:48;32.20;99.90
63875;DHT22;51595;24.180;-110.296;2023-07-24T14:52:14;32.20;99.90
63875;DHT22;51595;24.180;-110.296;2023-07-24T14:54:40;32.40;99.90
63875;DHT22;51595;24.180;-110.296;2023-07-24T14:57:07;32.50;99.90
63875;DHT22;51595;24.180;-110.296;2023-07-24T14:59:35;32.80;99.90